Time;durP1;ratioP1;P1;durP2;ratioP2;P2;SDS_P1;SDS_P2;PMS_P1;PMS_P2;Temp;Humidity;BMP_temperature;BMP_pressure;BME280_temperature;BME280_humidity;BME280_pressure;Samples;Min_cycle;Max_cycle;Signal;HPM_P1;HPM_P2
2023/10/27 00:02:01;;;;;;;9.40;5.90;;;;;;;8.76;100.00;95954.62;110165;1240;68124;-67
2023/10/27 00:04:32;;;;;;;7.40;5.80;;;;;;;8.78;100.00;95965.18;110179;1241;69398;-67
2023/10/27 00:07:03;;;;;;;9.10;4.90;;;;;;;8.81;100.00;95965.06;110103;1244;59818;-67
2023/10/27 00:09:35;;;;;;;6.50;4.90;;;;;;;8.81;100.00;95957.17;110228;1242;59681;-67
2023/10/27 00:12:07;;;;;;;7.10;5.40;;;;;;;8.81;100.00;95958.16;110139;1243;71356;-67
2023/10/27 00:14:37;;;;;;;8.30;6.20;;;;;;;8.80;100.00;95959.67;110117;1244;69599;-66
2023/10/27 00:17:11;;;;;;;10.10;7.30;;;;;;;8.81;100.00;95946.00;110118;1244;68565;-66
2023/10/27 00:19:42;;;;;;;10.50;7.00;;;;;;;8.84;100.00;95937.20;110195;1242;59660;-66
2023/10/27 00:22:13;;;;;;;9.20;6.10;;;;;;;8.90;100.00;95941.40;110206;1242;59682;-67
2023/10/27 00:24:47;;;;;;;7.30;5.20;;;;;;;8.95;100.00;95940.91;110250;1241;71818;-66
2023/10/27 00:27:20;;;;;;;7.30;5.10;;;;;;;9.01;100.00;95937.48;110259;1242;69223;-66
2023/10/27 00:29:49;;;;;;;6.80;5.00;;;;;;;9.05;100.00;95936.70;110232;1242;68289;-66
2023/10/27 00:32:21;;;;;;;5.80;4.60;;;;;;;9.09;100.00;95935.34;110258;1241;59782;-68
2023/10/27 00:34:54;;;;;;;5.80;4.70;;;;;;;9.12;100.00;95936.95;110292;1249;59633;-67
2023/10/27 00:37:34;;;;;;;9.10;5.80;;;;;;;9.17;100.00;95947.42;110326;1241;71490;-66
2023/10/27 00:40:05;;;;;;;7.70;5.50;;;;;;;9.22;100.00;95947.60;110303;1242;69405;-66
2023/10/27 00:42:41;;;;;;;10.20;7.40;;;;;;;9.28;100.00;95946.50;110262;1241;68533;-67
2023/10/27 00:45:15;;;;;;;8.30;4.90;;;;;;;9.34;100.00;95947.97;110231;1241;59747;-66
2023/10/27 00:47:49;;;;;;;6.70;5.60;;;;;;;9.39;100.00;95942.50;110284;1241;59732;-68
2023/10/27 00:50:23;;;;;;;10.40;7.50;;;;;;;9.44;100.00;95939.94;110194;1242;70409;-68
2023/10/27 00:52:59;;;;;;;8.40;6.30;;;;;;;9.48;100.00;95936.61;110305;1241;69123;-68
2023/10/27 00:55:36;;;;;;;6.20;4.80;;;;;;;9.53;100.00;95929.91;110264;1241;69127;-69
2023/10/27 00:58:13;;;;;;;7.30;6.00;;;;;;;9.59;100.00;95920.16;110249;1241;59671;-69
2023/10/27 01:00:45;;;;;;;6.90;6.00;;;;;;;9.65;100.00;95919.59;110191;1245;59647;-66
2023/10/27 01:03:25;;;;;;;6.40;4.80;;;;;;;9.70;100.00;95924.70;110221;1241;70657;-68
2023/10/27 01:06:01;;;;;;;9.50;6.10;;;;;;;9.76;100.00;95925.05;110232;1241;68675;-67
2023/10/27 01:08:36;;;;;;;5.90;4.70;;;;;;;9.80;100.00;95918.26;110323;1243;68767;-67
2023/10/27 01:11:09;;;;;;;7.80;5.10;;;;;;;9.83;100.00;95914.95;110318;1242;59663;-69
2023/10/27 01:13:40;;;;;;;6.30;5.70;;;;;;;9.87;100.00;95906.64;110182;1244;59717;-68
2023/10/27 01:16:10;;;;;;;9.70;5.80;;;;;;;9.88;100.00;95901.40;110256;1241;71380;-67
2023/10/27 01:18:42;;;;;;;9.80;6.70;;;;;;;9.91;100.00;95901.73;110278;1242;68371;-67
2023/10/27 01:21:13;;;;;;;6.30;4.80;;;;;;;9.93;100.00;95898.17;110182;1240;69436;-67
2023/10/27 01:23:47;;;;;;;6.90;5.20;;;;;;;9.96;100.00;95900.69;110296;1244;59675;-68
2023/10/27 01:26:18;;;;;;;6.10;4.50;;;;;;;9.98;100.00;95891.64;110197;1242;59694;-68
2023/10/27 01:28:55;;;;;;;4.80;3.90;;;;;;;9.98;100.00;95892.84;110251;1241;71112;-67
2023/10/27 01:31:33;;;;;;;4.80;3.90;;;;;;;9.96;100.00;95890.96;110330;1241;68302;-66
2023/10/27 01:34:05;;;;;;;5.80;4.20;;;;;;;9.94;100.00;95898.63;110149;1242;69298;-67
2023/10/27 01:36:39;;;;;;;4.70;3.70;;;;;;;9.93;100.00;95901.52;110295;1242;59651;-67
2023/10/27 01:39:12;;;;;;;5.50;4.00;;;;;;;9.90;100.00;95894.80;110258;1241;59674;-67
2023/10/27 01:41:45;;;;;;;7.50;5.00;;;;;;;9.89;100.00;95896.29;110205;1242;70836;-69
2023/10/27 01:44:17;;;;;;;6.30;4.30;;;;;;;9.90;100.00;95900.56;110238;1248;69136;-68
2023/10/27 01:46:47;;;;;;;7.50;6.60;;;;;;;9.90;100.00;95896.95;110192;1242;69330;-68
2023/10/27 01:49:19;;;;;;;8.30;5.70;;;;;;;9.91;100.00;95900.70;110121;1243;59750;-68
2023/10/27 01:51:53;;;;;;;6.90;5.60;;;;;;;9.90;100.00;95898.66;110169;1242;59793;-68
2023/10/27 01:54:24;;;;;;;6.00;4.30;;;;;;;9.88;100.00;95900.55;110133;1240;71286;-69
2023/10/27 01:57:03;;;;;;;6.60;4.80;;;;;;;9.87;100.00;95898.95;110301;1242;69372;-68
2023/10/27 01:59:42;;;;;;;4.60;3.80;;;;;;;9.84;100.00;95899.36;110369;1242;68485;-68
2023/10/27 02:02:17;;;;;;;5.10;3.80;;;;;;;9.82;100.00;95901.55;110163;1244;59755;-68
2023/10/27 02:04:55;;;;;;;4.10;3.30;;;;;;;9.78;100.00;95905.84;110210;1244;59741;-67
2023/10/27 02:07:39;;;;;;;3.90;3.30;;;;;;;9.77;100.00;95899.38;110274;1241;70630;-68
2023/10/27 02:10:10;;;;;;;4.50;3.80;;;;;;;9.77;100.00;95892.59;110279;1241;68501;-68
2023/10/27 02:12:43;;;;;;;4.70;3.60;;;;;;;9.78;100.00;95893.83;110161;1243;69612;-68
2023/10/27 02:15:16;;;;;;;4.20;3.20;;;;;;;9.80;100.00;95891.44;110274;1241;59715;-68
2023/10/27 02:17:50;;;;;;;4.90;3.40;;;;;;;9.81;100.00;95895.73;110244;1240;59656;-66
2023/10/27 02:20:23;;;;;;;5.10;4.00;;;;;;;9.80;100.00;95890.39;110270;1241;71447;-68
2023/10/27 02:22:57;;;;;;;5.30;3.80;;;;;;;9.79;100.00;95890.64;110249;1244;68721;-68
2023/10/27 02:25:29;;;;;;;5.60;4.60;;;;;;;9.77;100.00;95889.45;110297;1242;70012;-67
2023/10/27 02:28:05;;;;;;;6.00;4.70;;;;;;;9.78;100.00;95890.70;110280;1241;59758;-68
2023/10/27 02:30:40;;;;;;;5.20;4.10;;;;;;;9.83;100.00;95892.03;110295;1245;59695;-68
2023/10/27 02:33:15;;;;;;;5.90;4.60;;;;;;;9.86;100.00;95893.11;110257;1240;71390;-68
2023/10/27 02:35:45;;;;;;;5.80;4.20;;;;;;;9.91;100.00;95891.55;110314;1241;69044;-68
2023/10/27 02:38:17;;;;;;;5.90;4.30;;;;;;;9.95;100.00;95896.05;110277;1242;68308;-67
2023/10/27 02:40:48;;;;;;;5.70;4.50;;;;;;;10.00;100.00;95893.95;110248;1241;59686;-67
2023/10/27 02:43:21;;;;;;;5.40;4.40;;;;;;;10.03;100.00;95895.85;110321;1241;59664;-67
2023/10/27 02:46:02;;;;;;;5.70;3.80;;;;;;;10.07;100.00;95892.23;110252;1240;71306;-66
2023/10/27 02:48:35;;;;;;;4.50;3.80;;;;;;;10.08;100.00;95894.48;110184;1242;69258;-67
2023/10/27 02:51:09;;;;;;;5.90;4.20;;;;;;;10.10;100.00;95892.86;110114;1241;69763;-68
2023/10/27 02:53:41;;;;;;;5.00;3.70;;;;;;;10.13;100.00;95892.45;110126;1242;59663;-68
2023/10/27 02:56:11;;;;;;;5.40;4.20;;;;;;;10.16;100.00;95888.66;110159;1242;59690;-67
2023/10/27 02:58:43;;;;;;;7.20;4.60;;;;;;;10.19;100.00;95884.70;110135;1246;71384;-69
2023/10/27 03:01:15;;;;;;;;;;;;;;;10.23;100.00;95882.30;110165;1243;68399;-67
2023/10/27 03:03:47;;;;;;;4.50;3.80;;;;;;;10.26;100.00;95880.00;110143;1241;69886;-68
2023/10/27 03:06:22;;;;;;;4.00;3.20;;;;;;;10.28;100.00;95873.55;110136;1244;59758;-68
2023/10/27 03:08:55;;;;;;;4.10;3.20;;;;;;;10.30;100.00;95870.88;110284;1243;59690;-68
2023/10/27 03:11:26;;;;;;;4.20;3.50;;;;;;;10.31;100.00;95864.31;110121;1243;71433;-67
2023/10/27 03:13:58;;;;;;;4.30;3.40;;;;;;;10.33;100.00;95868.70;110131;1243;69121;-68
2023/10/27 03:16:28;;;;;;;5.40;3.90;;;;;;;10.34;100.00;95861.55;110142;1243;67611;-67
2023/10/27 03:18:58;;;;;;;5.80;4.00;;;;;;;10.35;100.00;95856.77;110127;1245;59679;-67
2023/10/27 03:21:29;;;;;;;3.90;3.40;;;;;;;10.37;100.00;95860.15;110176;1240;59704;-67
2023/10/27 03:24:00;;;;;;;3.20;2.70;;;;;;;10.39;100.00;95863.77;110169;1242;71385;-67
2023/10/27 03:26:31;;;;;;;6.00;4.20;;;;;;;10.40;100.00;95861.76;110163;1242;68627;-67
2023/10/27 03:29:00;;;;;;;5.10;4.30;;;;;;;10.40;100.00;95859.24;110158;1242;69324;-67
2023/10/27 03:31:30;;;;;;;;;;;;;;;10.41;100.00;95857.75;110156;1242;59767;-67
2023/10/27 03:34:01;;;;;;;;;;;;;;;10.43;100.00;95859.71;110148;1243;59664;-67
2023/10/27 03:36:32;;;;;;;4.70;3.90;;;;;;;10.45;100.00;95859.70;110198;1242;71468;-66
2023/10/27 03:39:02;;;;;;;5.20;3.90;;;;;;;10.46;100.00;95860.48;110316;1241;69192;-67
2023/10/27 03:41:33;;;;;;;5.20;4.10;;;;;;;10.49;100.00;95863.12;110157;1242;69293;-67
2023/10/27 03:44:03;;;;;;;5.30;4.30;;;;;;;10.52;100.00;95860.56;110229;1242;59737;-68
2023/10/27 03:46:33;;;;;;;4.00;3.50;;;;;;;10.55;100.00;95860.95;110249;1242;59663;-68
2023/10/27 03:49:03;;;;;;;4.40;3.60;;;;;;;10.57;100.00;95859.52;110170;1249;71346;-67
2023/10/27 03:51:33;;;;;;;4.40;3.30;;;;;;;10.58;100.00;95859.21;110190;1242;69238;-67
2023/10/27 03:54:02;;;;;;;3.50;3.20;;;;;;;10.60;100.00;95857.83;110165;1241;69479;-68
2023/10/27 03:56:33;;;;;;;4.30;3.30;;;;;;;10.61;100.00;95851.79;110154;1240;60093;-68
2023/10/27 03:59:02;;;;;;;;;;;;;;;10.62;100.00;95851.05;110151;1242;59640;-68
2023/10/27 04:01:32;;;;;;;4.80;3.60;;;;;;;10.62;100.00;95847.68;110239;1249;69797;-68
2023/10/27 04:04:03;;;;;;;5.20;4.30;;;;;;;10.63;100.00;95849.35;110320;1241;69077;-68
2023/10/27 04:06:33;;;;;;;5.90;3.70;;;;;;;10.64;100.00;95847.88;110300;1242;69587;-67
2023/10/27 04:09:02;;;;;;;5.10;4.00;;;;;;;10.65;100.00;95842.89;110303;1241;59678;-68
2023/10/27 04:11:32;;;;;;;6.00;4.10;;;;;;;10.67;100.00;95846.16;110317;1242;59673;-66
2023/10/27 04:14:02;;;;;;;5.80;4.10;;;;;;;10.69;100.00;95845.11;110317;1242;71319;-67
2023/10/27 04:16:32;;;;;;;4.10;3.40;;;;;;;10.71;100.00;95840.77;110310;1242;69405;-67
2023/10/27 04:19:01;;;;;;;6.30;4.00;;;;;;;10.73;100.00;95829.82;110276;1241;69287;-66
2023/10/27 04:21:31;;;;;;;4.40;3.50;;;;;;;10.74;100.00;95824.47;110291;1241;59682;-66
2023/10/27 04:24:01;;;;;;;5.50;3.80;;;;;;;10.76;100.00;95823.53;110358;1243;60153;-69
2023/10/27 04:26:31;;;;;;;4.10;3.40;;;;;;;10.79;100.00;95818.37;110349;1247;71860;-68
2023/10/27 04:29:01;;;;;;;3.80;3.20;;;;;;;10.79;100.00;95817.32;110272;1242;68617;-67
2023/10/27 04:31:31;;;;;;;4.70;3.50;;;;;;;10.80;100.00;95820.52;110264;1241;70177;-69
2023/10/27 04:34:03;;;;;;;4.90;3.50;;;;;;;10.80;100.00;95817.91;110412;1242;59664;-68
2023/10/27 04:36:35;;;;;;;4.50;3.70;;;;;;;10.80;100.00;95825.04;110274;1239;59666;-67
2023/10/27 04:39:04;;;;;;;5.40;3.80;;;;;;;10.81;100.00;95824.78;110361;1241;69867;-67
2023/10/27 04:41:34;;;;;;;4.40;3.60;;;;;;;10.84;100.00;95825.36;110129;1242;69523;-68
2023/10/27 04:44:05;;;;;;;4.80;3.70;;;;;;;10.88;100.00;95827.09;110216;1242;69714;-68
2023/10/27 04:46:36;;;;;;;4.80;4.00;;;;;;;10.89;100.00;95822.95;110321;1242;59738;-67
2023/10/27 04:49:06;;;;;;;6.00;4.40;;;;;;;10.89;100.00;95813.84;110320;1241;59702;-68
2023/10/27 04:51:36;;;;;;;5.60;3.80;;;;;;;10.89;100.00;95819.84;110363;1239;71428;-69
2023/10/27 04:54:05;;;;;;;4.80;4.00;;;;;;;10.88;100.00;95818.53;110322;1244;69131;-67
2023/10/27 04:56:34;;;;;;;4.70;3.70;;;;;;;10.88;100.00;95818.05;110287;1241;69277;-67
2023/10/27 04:59:04;;;;;;;4.20;3.80;;;;;;;10.87;100.00;95817.41;110287;1241;59682;-67
2023/10/27 05:01:34;;;;;;;5.50;4.70;;;;;;;10.85;100.00;95819.38;110250;1242;59588;-68
2023/10/27 05:04:04;;;;;;;4.90;4.40;;;;;;;10.85;100.00;95823.02;110234;1244;70678;-67
2023/10/27 05:06:36;;;;;;;;;;;;;;;10.84;100.00;95818.05;110275;1242;69273;-67
2023/10/27 05:09:05;;;;;;;6.00;4.50;;;;;;;10.83;100.00;95820.91;110255;1241;69321;-67
2023/10/27 05:11:35;;;;;;;4.80;4.20;;;;;;;10.86;100.00;95822.75;110255;1241;59713;-67
2023/10/27 05:14:05;;;;;;;5.70;4.40;;;;;;;10.88;100.00;95825.69;110272;1241;59677;-67
2023/10/27 05:16:34;;;;;;;7.10;4.10;;;;;;;10.90;100.00;95829.09;110264;1242;72039;-67
2023/10/27 05:19:04;;;;;;;5.50;4.20;;;;;;;10.96;100.00;95828.92;110324;1241;69796;-67
2023/10/27 05:21:34;;;;;;;7.30;5.20;;;;;;;10.96;100.00;95828.86;110275;1242;69171;-69
2023/10/27 05:24:05;;;;;;;4.80;4.20;;;;;;;10.99;100.00;95830.48;110261;1242;60091;-67
2023/10/27 05:26:34;;;;;;;7.00;4.60;;;;;;;11.02;100.00;95824.27;110288;1245;59705;-67
2023/10/27 05:29:04;;;;;;;4.50;4.00;;;;;;;11.06;100.00;95824.42;110361;1248;71302;-68
2023/10/27 05:31:35;;;;;;;5.00;4.30;;;;;;;11.09;100.00;95820.97;110398;1242;69362;-68
2023/10/27 05:34:04;;;;;;;5.90;4.20;;;;;;;11.13;100.00;95824.91;110339;1242;69561;-68
2023/10/27 05:36:35;;;;;;;5.20;4.40;;;;;;;11.15;100.00;95820.01;110342;1242;59737;-69
2023/10/27 05:39:04;;;;;;;5.20;4.50;;;;;;;11.17;100.00;95820.46;110368;1241;59718;-69
2023/10/27 05:41:34;;;;;;;5.60;4.90;;;;;;;11.21;100.00;95821.83;110242;1249;71899;-69
2023/10/27 05:44:03;;;;;;;5.40;4.30;;;;;;;11.24;100.00;95820.70;110301;1241;68501;-68
2023/10/27 05:46:32;;;;;;;5.00;3.90;;;;;;;11.28;100.00;95818.54;110317;1240;69111;-68
2023/10/27 05:49:04;;;;;;;4.10;3.60;;;;;;;11.32;100.00;95819.86;110281;1241;59625;-68
2023/10/27 05:51:37;;;;;;;5.20;4.00;;;;;;;11.36;100.00;95820.67;110306;1241;59599;-68
2023/10/27 05:54:09;;;;;;;5.00;3.70;;;;;;;11.40;100.00;95818.54;110292;1241;70928;-69
2023/10/27 05:56:39;;;;;;;5.10;3.90;;;;;;;11.44;100.00;95820.04;110298;1241;69872;-68
2023/10/27 05:59:09;;;;;;;4.90;3.90;;;;;;;11.49;100.00;95817.94;110253;1241;68541;-68
2023/10/27 06:01:38;;;;;;;5.20;3.90;;;;;;;11.54;100.00;95815.73;110247;1242;59760;-67
2023/10/27 06:04:07;;;;;;;5.60;4.70;;;;;;;11.58;100.00;95818.22;110255;1248;59690;-68
2023/10/27 06:06:37;;;;;;;;;;;;;;;11.63;100.00;95822.75;110244;1241;71487;-67
2023/10/27 06:09:06;;;;;;;4.40;3.80;;;;;;;11.68;100.00;95817.59;110268;1241;69450;-69
2023/10/27 06:11:35;;;;;;;5.10;4.20;;;;;;;11.74;100.00;95820.08;110267;1241;69612;-69
2023/10/27 06:14:04;;;;;;;8.60;5.50;;;;;;;11.80;100.00;95823.02;110248;1241;59627;-67
2023/10/27 06:16:34;;;;;;;4.90;3.80;;;;;;;11.85;100.00;95822.70;110349;1241;59735;-67
2023/10/27 06:19:04;;;;;;;6.40;4.80;;;;;;;11.90;100.00;95818.48;110271;1243;72102;-68
2023/10/27 06:21:33;;;;;;;7.40;4.70;;;;;;;11.95;100.00;95814.70;110245;1241;67846;-68
2023/10/27 06:24:03;;;;;;;4.10;3.60;;;;;;;11.99;100.00;95816.02;110292;1245;69853;-68
2023/10/27 06:26:32;;;;;;;5.20;3.90;;;;;;;12.03;100.00;95816.79;110292;1241;59731;-69
2023/10/27 06:29:03;;;;;;;5.20;4.00;;;;;;;12.08;100.00;95816.52;110295;1242;59641;-69
2023/10/27 06:31:32;;;;;;;5.60;4.00;;;;;;;12.13;100.00;95817.33;110280;1241;71752;-69
2023/10/27 06:34:02;;;;;;;5.70;4.30;;;;;;;12.20;100.00;95820.46;110356;1241;69824;-71
2023/10/27 06:36:32;;;;;;;5.70;4.30;;;;;;;12.28;100.00;95818.06;110324;1240;69235;-68
2023/10/27 06:39:01;;;;;;;4.80;4.20;;;;;;;12.38;100.00;95817.00;110305;1241;59694;-69
2023/10/27 06:41:31;;;;;;;5.70;4.60;;;;;;;12.50;100.00;95814.36;110329;1241;59665;-69
2023/10/27 06:44:01;;;;;;;4.80;3.70;;;;;;;12.62;100.00;95815.46;110212;1244;71653;-67
2023/10/27 06:46:31;;;;;;;5.00;4.40;;;;;;;12.77;100.00;95817.45;110215;1241;69209;-68
2023/10/27 06:49:00;;;;;;;4.90;4.10;;;;;;;12.89;100.00;95822.36;110230;1242;68602;-68
2023/10/27 06:51:30;;;;;;;5.00;4.00;;;;;;;13.02;100.00;95813.65;110148;1242;59709;-69
2023/10/27 06:53:59;;;;;;;5.10;4.20;;;;;;;13.14;100.00;95811.45;110390;1241;59674;-68
2023/10/27 06:56:28;;;;;;;5.40;3.60;;;;;;;13.24;100.00;95811.79;110248;1239;71237;-68
2023/10/27 06:58:58;;;;;;;4.50;3.80;;;;;;;13.33;100.00;95813.64;110259;1239;68482;-69
2023/10/27 07:01:29;;;;;;;4.10;3.50;;;;;;;13.42;100.00;95813.89;110288;1242;69315;-68
2023/10/27 07:03:58;;;;;;;4.90;3.70;;;;;;;13.52;100.00;95810.35;110215;1240;59684;-69
2023/10/27 07:06:28;;;;;;;4.40;3.80;;;;;;;13.61;100.00;95807.93;110370;1241;59748;-69
2023/10/27 07:08:58;;;;;;;4.90;3.60;;;;;;;13.70;100.00;95804.15;110361;1241;71431;-69
2023/10/27 07:11:27;;;;;;;4.40;3.60;;;;;;;13.77;100.00;95800.36;110280;1240;69242;-69
2023/10/27 07:13:56;;;;;;;5.40;4.10;;;;;;;13.85;100.00;95798.31;110286;1241;69893;-68
2023/10/27 07:16:30;;;;;;;4.40;3.90;;;;;;;13.92;100.00;95800.44;110286;1246;59716;-69
2023/10/27 07:19:00;;;;;;;5.80;4.00;;;;;;;14.00;100.00;95794.50;110309;1241;59959;-70
2023/10/27 07:21:29;;;;;;;4.30;3.90;;;;;;;14.06;100.00;95792.39;110339;1241;71942;-68
2023/10/27 07:23:58;;;;;;;5.60;4.80;;;;;;;14.13;100.00;95791.27;110220;1239;69261;-70
2023/10/27 07:26:27;;;;;;;5.40;4.30;;;;;;;14.17;100.00;95792.95;110200;1241;69870;-68
2023/10/27 07:28:57;;;;;;;6.50;5.10;;;;;;;14.23;100.00;95787.48;110261;1241;59651;-71
2023/10/27 07:31:26;;;;;;;5.60;4.30;;;;;;;14.29;100.00;95786.40;110390;1242;59731;-70
2023/10/27 07:33:55;;;;;;;5.80;4.50;;;;;;;14.33;100.00;95780.48;110389;1241;71397;-69
2023/10/27 07:36:25;;;;;;;5.80;3.90;;;;;;;14.35;100.00;95782.92;110279;1241;69318;-70
2023/10/27 07:38:54;;;;;;;4.90;3.80;;;;;;;14.37;100.00;95778.26;110350;1243;68321;-69
2023/10/27 07:41:23;;;;;;;4.40;3.30;;;;;;;14.40;100.00;95776.62;110305;1247;60192;-68
2023/10/27 07:43:52;;;;;;;4.70;3.60;;;;;;;14.44;100.00;95774.76;110283;1241;59722;-69
2023/10/27 07:46:21;;;;;;;4.50;3.50;;;;;;;14.44;100.00;95773.73;110267;1242;71414;-69
2023/10/27 07:48:50;;;;;;;4.10;3.70;;;;;;;14.44;100.00;95773.95;110257;1241;68065;-69
2023/10/27 07:51:19;;;;;;;4.20;3.40;;;;;;;14.45;100.00;95771.82;110309;1240;69855;-69
2023/10/27 07:53:48;;;;;;;5.60;3.50;;;;;;;14.47;100.00;95770.77;110316;1241;59686;-69
2023/10/27 07:56:18;;;;;;;4.60;3.50;;;;;;;14.48;100.00;95768.42;110278;1241;59661;-69
2023/10/27 07:58:50;;;;;;;4.50;3.30;;;;;;;14.51;100.00;95772.80;110282;1241;70638;-69
2023/10/27 08:01:19;;;;;;;5.10;3.00;;;;;;;14.55;100.00;95771.83;110245;1242;68266;-68
2023/10/27 08:03:48;;;;;;;5.30;3.50;;;;;;;14.58;100.00;95766.38;110141;1240;68686;-69
2023/10/27 08:06:17;;;;;;;4.10;3.60;;;;;;;14.60;100.00;95770.73;110330;1241;59734;-69
2023/10/27 08:08:46;;;;;;;5.70;3.00;;;;;;;14.62;100.00;95771.14;110293;1241;59746;-69
2023/10/27 08:11:17;;;;;;;4.20;2.80;;;;;;;14.66;100.00;95772.80;110276;1241;71201;-69
2023/10/27 08:13:47;;;;;;;3.70;3.00;;;;;;;14.69;100.00;95776.46;110372;1241;68458;-69
2023/10/27 08:16:16;;;;;;;4.70;3.90;;;;;;;14.69;100.00;95775.02;110254;1239;69266;-69
2023/10/27 08:18:46;;;;;;;4.50;3.30;;;;;;;14.69;100.00;95775.14;110233;1239;59678;-69
2023/10/27 08:21:15;;;;;;;;;;;;;;;14.70;100.00;95773.09;110286;1242;60131;-70
2023/10/27 08:23:44;;;;;;;4.10;3.30;;;;;;;14.71;100.00;95769.48;110209;1241;71435;-69
2023/10/27 08:26:13;;;;;;;4.50;3.20;;;;;;;14.74;100.00;95776.31;110296;1240;69217;-69
2023/10/27 08:28:42;;;;;;;4.60;3.50;;;;;;;14.77;100.00;95775.95;110257;1242;68423;-66
2023/10/27 08:31:12;;;;;;;3.50;3.00;;;;;;;14.80;100.00;95774.59;110194;1241;59734;-69
2023/10/27 08:33:43;;;;;;;4.10;3.10;;;;;;;14.82;100.00;95774.90;110272;1241;59678;-67
2023/10/27 08:36:13;;;;;;;4.10;3.30;;;;;;;14.84;100.00;95771.70;110251;1242;71596;-69
2023/10/27 08:38:42;;;;;;;5.60;3.70;;;;;;;14.86;100.00;95761.74;110371;1241;69257;-68
2023/10/27 08:41:13;;;;;;;4.90;3.80;;;;;;;14.88;100.00;95760.32;110198;1242;68425;-68
2023/10/27 08:43:43;;;;;;;5.20;3.80;;;;;;;14.90;100.00;95759.38;110372;1241;59705;-68
2023/10/27 08:46:13;;;;;;;5.40;4.10;;;;;;;14.92;100.00;95755.52;110295;1241;59667;-69
2023/10/27 08:48:42;;;;;;;;;;;;;;;14.93;100.00;95749.70;110390;1241;71399;-68
2023/10/27 08:51:19;;;;;;;4.60;3.90;;;;;;;14.94;100.00;95747.67;110251;1241;69194;-66
2023/10/27 08:53:48;;;;;;;4.00;3.60;;;;;;;14.95;100.00;95744.52;110352;1241;69637;-69
2023/10/27 08:56:17;;;;;;;6.10;3.80;;;;;;;14.97;100.00;95745.20;110372;1241;60067;-69
2023/10/27 08:58:48;;;;;;;4.80;3.80;;;;;;;14.97;100.00;95740.62;110251;1241;59711;-68
2023/10/27 09:01:20;;;;;;;4.60;3.70;;;;;;;15.00;100.00;95742.41;110287;1241;69634;-69
2023/10/27 09:04:08;;;;;;;5.20;3.80;;;;;;;15.00;100.00;95742.93;110251;1241;68695;-69
2023/10/27 09:06:41;;;;;;;3.80;3.40;;;;;;;15.02;100.00;95736.14;110336;1241;68672;-69
2023/10/27 09:09:10;;;;;;;4.40;4.00;;;;;;;15.05;100.00;95731.14;110301;1241;59672;-68
2023/10/27 09:11:44;;;;;;;4.50;3.90;;;;;;;15.05;100.00;95733.24;110306;1241;59676;-68
2023/10/27 09:14:26;;;;;;;6.70;4.30;;;;;;;15.06;100.00;95733.79;110263;1241;71890;-68
2023/10/27 09:17:06;;;;;;;5.70;3.70;;;;;;;15.06;100.00;95740.51;110250;1240;69808;-68
2023/10/27 09:19:37;;;;;;;3.80;3.10;;;;;;;15.06;100.00;95743.79;109737;1241;651455;-67
2023/10/27 09:22:18;;;;;;;3.50;3.00;;;;;;;15.08;100.00;95743.79;110283;1241;59728;-69
2023/10/27 09:24:49;;;;;;;4.20;3.00;;;;;;;15.12;100.00;95745.79;110309;1241;59613;-68
2023/10/27 09:27:26;;;;;;;4.80;3.60;;;;;;;15.15;100.00;95748.54;110309;1248;71424;-68
2023/10/27 09:29:55;;;;;;;3.80;3.00;;;;;;;15.17;100.00;95738.16;110244;1241;69236;-68
2023/10/27 09:32:26;;;;;;;4.20;3.10;;;;;;;15.20;100.00;95731.81;110223;1241;69312;-67
2023/10/27 09:35:13;;;;;;;4.00;3.10;;;;;;;15.20;100.00;95729.63;110224;1248;59744;-67
2023/10/27 09:37:48;;;;;;;3.70;2.80;;;;;;;15.22;100.00;95722.66;110258;1241;59668;-68
2023/10/27 09:40:18;;;;;;;3.20;2.90;;;;;;;15.23;100.00;95713.75;110266;1241;69495;-69
2023/10/27 09:42:52;;;;;;;3.40;2.90;;;;;;;15.23;100.00;95710.52;110254;1241;68783;-69
2023/10/27 09:45:24;;;;;;;5.30;3.40;;;;;;;15.24;100.00;95706.76;110198;1240;68482;-68
2023/10/27 09:48:05;;;;;;;5.30;4.30;;;;;;;15.26;100.00;95701.98;110275;1241;59703;-68
2023/10/27 09:50:35;;;;;;;7.30;4.80;;;;;;;15.27;100.00;95699.67;110239;1240;59692;-69
2023/10/27 09:53:04;;;;;;;6.00;4.90;;;;;;;15.28;100.00;95697.66;110242;1241;70520;-69
2023/10/27 09:55:36;;;;;;;7.50;5.70;;;;;;;15.28;100.00;95692.23;110300;1241;69809;-70
2023/10/27 09:58:05;;;;;;;5.50;4.20;;;;;;;15.29;100.00;95685.44;110223;1248;69177;-69
2023/10/27 10:00:35;;;;;;;5.60;4.70;;;;;;;15.30;100.00;95682.55;110281;1239;59684;-68
2023/10/27 10:03:06;;;;;;;5.50;4.10;;;;;;;15.31;100.00;95685.02;110256;1240;59671;-67
2023/10/27 10:06:12;;;;;;;5.10;4.60;;;;;;;15.34;100.00;95679.92;110236;1241;71902;-68
2023/10/27 10:09:14;;;;;;;4.90;4.00;;;;;;;15.36;100.00;95670.73;110225;1241;69842;-69
2023/10/27 10:11:51;;;;;;;5.40;3.80;;;;;;;15.34;100.00;95667.89;110143;1242;68499;-68
2023/10/27 10:14:43;;;;;;;6.30;5.10;;;;;;;15.32;100.00;95666.53;110254;1242;59693;-68
2023/10/27 10:17:35;;;;;;;5.90;4.90;;;;;;;15.29;100.00;95660.30;110229;1241;59708;-69
2023/10/27 10:20:06;;;;;;;5.20;4.70;;;;;;;15.28;100.00;95650.73;110252;1241;70315;-68
2023/10/27 10:22:51;;;;;;;5.20;4.20;;;;;;;15.31;100.00;95645.02;110224;1242;69320;-68
2023/10/27 10:25:21;;;;;;;4.90;3.90;;;;;;;15.35;100.00;95641.09;110206;1241;69849;-69
2023/10/27 10:28:08;;;;;;;4.30;3.70;;;;;;;15.37;100.00;95633.76;110159;1242;60062;-68
2023/10/27 10:30:40;;;;;;;5.30;3.90;;;;;;;15.40;100.00;95627.99;110238;1241;59692;-69
2023/10/27 10:33:27;;;;;;;4.90;4.00;;;;;;;15.40;100.00;95619.70;110222;1241;71967;-68
2023/10/27 10:36:18;;;;;;;8.30;4.40;;;;;;;15.41;100.00;95617.88;110270;1241;68561;-68
2023/10/27 10:38:53;;;;;;;4.90;4.40;;;;;;;15.38;100.00;95614.35;110251;1241;68483;-68
2023/10/27 10:41:52;;;;;;;6.50;4.80;;;;;;;15.39;100.00;95609.35;110238;1241;60069;-68
2023/10/27 10:44:21;;;;;;;6.20;5.20;;;;;;;15.43;100.00;95603.77;110307;1241;59748;-68
2023/10/27 10:46:50;;;;;;;6.00;4.60;;;;;;;15.46;100.00;95597.77;110210;1240;71366;-69
2023/10/27 10:49:27;;;;;;;5.00;4.40;;;;;;;15.51;100.00;95588.75;110236;1241;69589;-69
2023/10/27 10:52:00;;;;;;;6.00;4.30;;;;;;;15.54;100.00;95585.39;110241;1241;69187;-68
2023/10/27 10:54:32;;;;;;;5.40;4.60;;;;;;;15.54;100.00;95587.45;110251;1239;59663;-69
2023/10/27 10:57:09;;;;;;;6.10;4.40;;;;;;;15.52;100.00;95581.05;110278;1239;59680;-70
2023/10/27 10:59:52;;;;;;;4.80;3.90;;;;;;;15.53;100.00;95575.35;110344;1240;71593;-69
2023/10/27 11:02:21;;;;;;;5.20;4.20;;;;;;;15.53;100.00;95559.91;110242;1239;68803;-67
2023/10/27 11:04:51;;;;;;;5.00;4.40;;;;;;;15.52;100.00;95553.17;110243;1241;69162;-69
2023/10/27 11:07:21;;;;;;;5.00;3.80;;;;;;;15.50;100.00;95552.36;110247;1240;59686;-69
2023/10/27 11:09:50;;;;;;;;;;;;;;;15.50;100.00;95560.45;110209;1242;59675;-69
2023/10/27 11:12:27;;;;;;;6.20;4.00;;;;;;;15.49;100.00;95558.98;110313;1241;71995;-69
2023/10/27 11:14:56;;;;;;;5.00;4.50;;;;;;;15.49;100.00;95559.69;110240;1239;69238;-69
2023/10/27 11:17:25;;;;;;;4.80;4.30;;;;;;;15.46;100.00;95551.38;110294;1241;69281;-70
2023/10/27 11:19:55;;;;;;;3.90;3.50;;;;;;;15.43;100.00;95549.73;110372;1240;59634;-69
2023/10/27 11:22:27;;;;;;;5.30;4.00;;;;;;;15.39;100.00;95545.44;110240;1240;59808;-69
2023/10/27 11:24:56;;;;;;;4.10;3.60;;;;;;;15.38;100.00;95539.27;110275;1242;72456;-69
2023/10/27 11:27:26;;;;;;;5.30;4.10;;;;;;;15.35;100.00;95536.69;110273;1241;68500;-68
2023/10/27 11:29:57;;;;;;;6.50;4.10;;;;;;;15.30;100.00;95536.14;110292;1240;68413;-69
2023/10/27 11:32:26;;;;;;;5.90;3.80;;;;;;;15.27;100.00;95530.36;110292;1241;59730;-69
2023/10/27 11:34:57;;;;;;;5.90;4.10;;;;;;;15.22;100.00;95530.08;110310;1241;59783;-68
2023/10/27 11:37:29;;;;;;;5.90;4.80;;;;;;;15.19;100.00;95534.29;110317;1240;70479;-68
2023/10/27 11:40:12;;;;;;;5.40;3.80;;;;;;;15.17;100.00;95529.32;110230;1240;69891;-68
2023/10/27 11:42:42;;;;;;;5.30;4.70;;;;;;;15.14;100.00;95521.11;110235;1240;69811;-69
2023/10/27 11:45:15;;;;;;;5.60;4.10;;;;;;;15.11;100.00;95524.47;110265;1241;59792;-69